sensor_id;sensor_type;location;lat;lon;timestamp;temperature;humidity
37786;DHT22;23625;48.784;9.336;2024-02-04T00:01:25;8.30;99.90
37786;DHT22;23625;48.784;9.336;2024-02-04T00:03:51;8.30;99.90
37786;DHT22;23625;48.784;9.336;2024-02-04T00:06:16;8.30;99.90
37786;DHT22;23625;48.784;9.336;2024-02-04T00:08:42;8.30;99.90
37786;DHT22;23625;48.784;9.336;2024-02-04T00:11:07;8.30;99.90
37786;DHT22;23625;48.784;9.336;2024-02-04T00:13:37;8.20;99.90
37786;DHT22;23625;48.784;9.336;2024-02-04T00:16:03;8.20;99.90
37786;DHT22;23625;48.784;9.336;2024-02-04T00:18:29;8.20;99.90
37786;DHT22;23625;48.784;9.336;2024-02-04T00:20:54;8.20;99.90
37786;DHT22;23625;48.784;9.336;2024-02-04T00:23:20;8.20;99.90
37786;DHT22;23625;48.784;9.336;2024-02-04T00:25:45;8.20;99.90
37786;DHT22;23625;48.784;9.336;2024-02-04T00:28:11;8.20;99.90
37786;DHT22;23625;48.784;9.336;2024-02-04T00:30:38;8.20;99.90
37786;DHT22;23625;48.784;9.336;2024-02-04T00:33:04;8.10;99.90
37786;DHT22;23625;48.784;9.336;2024-02-04T00:35:30;8.10;99.90
37786;DHT22;23625;48.784;9.336;2024-02-04T00:37:56;8.00;99.90
37786;DHT22;23625;48.784;9.336;2024-02-04T00:40:22;8.00;99.90
37786;DHT22;23625;48.784;9.336;2024-02-04T00:42:48;8.00;99.90
37786;DHT22;23625;48.784;9.336;2024-02-04T00:45:13;8.00;99.90
37786;DHT22;23625;48.784;9.336;2024-02-04T00:47:39;7.90;99.90
37786;DHT22;23625;48.784;9.336;2024-02-04T00:50:05;8.00;99.90
37786;DHT22;23625;48.784;9.336;2024-02-04T00:52:31;8.00;99.90
37786;DHT22;23625;48.784;9.336;2024-02-04T00:54:56;7.90;99.90
37786;DHT22;23625;48.784;9.336;2024-02-04T00:57:22;7.90;99.90
37786;DHT22;23625;48.784;9.336;2024-02-04T00:59:47;7.90;99.90
37786;DHT22;23625;48.784;9.336;2024-02-04T01:02:13;8.00;99.90
37786;DHT22;23625;48.784;9.336;2024-02-04T01:04:39;8.00;99.90
37786;DHT22;23625;48.784;9.336;2024-02-04T01:07:04;8.00;99.90
37786;DHT22;23625;48.784;9.336;2024-02-04T01:09:30;7.90;99.90
37786;DHT22;23625;48.784;9.336;2024-02-04T01:11:55;8.00;99.90
37786;DHT22;23625;48.784;9.336;2024-02-04T01:14:21;7.90;99.90
37786;DHT22;23625;48.784;9.336;2024-02-04T01:16:46;7.90;99.90
37786;DHT22;23625;48.784;9.336;2024-02-04T01:19:12;7.90;99.90
37786;DHT22;23625;48.784;9.336;2024-02-04T01:21:38;7.90;99.90
37786;DHT22;23625;48.784;9.336;2024-02-04T01:24:03;7.90;99.90
37786;DHT22;23625;48.784;9.336;2024-02-04T01:26:29;7.90;99.90
37786;DHT22;23625;48.784;9.336;2024-02-04T01:28:55;7.90;99.90
37786;DHT22;23625;48.784;9.336;2024-02-04T01:31:20;7.80;99.90
37786;DHT22;23625;48.784;9.336;2024-02-04T01:33:47;7.80;99.90
37786;DHT22;23625;48.784;9.336;2024-02-04T01:36:12;7.80;99.90
37786;DHT22;23625;48.784;9.336;2024-02-04T01:38:38;7.80;99.90
37786;DHT22;23625;48.784;9.336;2024-02-04T01:41:03;7.80;99.90
37786;DHT22;23625;48.784;9.336;2024-02-04T01:43:29;7.90;99.90
37786;DHT22;23625;48.784;9.336;2024-02-04T01:45:55;7.90;99.90
37786;DHT22;23625;48.784;9.336;2024-02-04T01:48:21;7.90;99.90
37786;DHT22;23625;48.784;9.336;2024-02-04T01:50:49;7.90;99.90
37786;DHT22;23625;48.784;9.336;2024-02-04T01:53:17;7.90;99.90
37786;DHT22;23625;48.784;9.336;2024-02-04T01:55:43;8.00;99.90
37786;DHT22;23625;48.784;9.336;2024-02-04T01:58:08;8.00;99.90
37786;DHT22;23625;48.784;9.336;2024-02-04T02:00:35;7.90;99.90
37786;DHT22;23625;48.784;9.336;2024-02-04T02:03:01;7.90;99.90
37786;DHT22;23625;48.784;9.336;2024-02-04T02:05:29;7.90;99.90
37786;DHT22;23625;48.784;9.336;2024-02-04T02:07:54;7.90;99.90
37786;DHT22;23625;48.784;9.336;2024-02-04T02:10:21;7.90;99.90
37786;DHT22;23625;48.784;9.336;2024-02-04T02:15:28;7.90;99.90
37786;DHT22;23625;48.784;9.336;2024-02-04T02:23:43;7.90;99.90
37786;DHT22;23625;48.784;9.336;2024-02-04T02:26:14;7.90;99.90
37786;DHT22;23625;48.784;9.336;2024-02-04T02:28:40;7.90;99.90
37786;DHT22;23625;48.784;9.336;2024-02-04T02:31:06;7.90;99.90
37786;DHT22;23625;48.784;9.336;2024-02-04T02:33:31;7.90;99.90
37786;DHT22;23625;48.784;9.336;2024-02-04T02:35:58;7.90;99.90
37786;DHT22;23625;48.784;9.336;2024-02-04T02:38:43;7.90;99.90
37786;DHT22;23625;48.784;9.336;2024-02-04T02:41:12;7.90;99.90
37786;DHT22;23625;48.784;9.336;2024-02-04T02:43:40;7.90;99.90
37786;DHT22;23625;48.784;9.336;2024-02-04T02:46:07;7.90;99.90
37786;DHT22;23625;48.784;9.336;2024-02-04T02:48:34;7.90;99.90
37786;DHT22;23625;48.784;9.336;2024-02-04T02:50:59;7.90;99.90
37786;DHT22;23625;48.784;9.336;2024-02-04T02:53:25;7.90;99.90
37786;DHT22;23625;48.784;9.336;2024-02-04T02:55:50;7.90;99.90
37786;DHT22;23625;48.784;9.336;2024-02-04T02:58:16;7.90;99.90
37786;DHT22;23625;48.784;9.336;2024-02-04T03:00:41;7.90;99.90
37786;DHT22;23625;48.784;9.336;2024-02-04T03:03:07;7.80;99.90
37786;DHT22;23625;48.784;9.336;2024-02-04T03:05:32;7.90;99.90
37786;DHT22;23625;48.784;9.336;2024-02-04T03:07:58;7.90;99.90
37786;DHT22;23625;48.784;9.336;2024-02-04T03:10:24;7.80;99.90
37786;DHT22;23625;48.784;9.336;2024-02-04T03:12:49;7.80;99.90
37786;DHT22;23625;48.784;9.336;2024-02-04T03:15:15;7.80;99.90
37786;DHT22;23625;48.784;9.336;2024-02-04T03:17:42;7.80;99.90
37786;DHT22;23625;48.784;9.336;2024-02-04T03:20:08;7.80;99.90
37786;DHT22;23625;48.784;9.336;2024-02-04T03:22:34;7.80;99.90
37786;DHT22;23625;48.784;9.336;2024-02-04T03:25:00;7.80;99.90
37786;DHT22;23625;48.784;9.336;2024-02-04T03:27:25;7.80;99.90
37786;DHT22;23625;48.784;9.336;2024-02-04T03:29:51;7.80;99.90
37786;DHT22;23625;48.784;9.336;2024-02-04T03:32:16;7.90;99.90
37786;DHT22;23625;48.784;9.336;2024-02-04T03:34:42;7.80;99.90
37786;DHT22;23625;48.784;9.336;2024-02-04T03:37:08;7.80;99.90
37786;DHT22;23625;48.784;9.336;2024-02-04T03:39:33;7.80;99.90
37786;DHT22;23625;48.784;9.336;2024-02-04T03:41:59;7.80;99.90
37786;DHT22;23625;48.784;9.336;2024-02-04T03:44:24;7.80;99.90
37786;DHT22;23625;48.784;9.336;2024-02-04T03:46:50;7.80;99.90
37786;DHT22;23625;48.784;9.336;2024-02-04T03:49:17;7.80;99.90
37786;DHT22;23625;48.784;9.336;2024-02-04T03:51:42;7.80;99.90
37786;DHT22;23625;48.784;9.336;2024-02-04T03:54:08;7.80;99.90
37786;DHT22;23625;48.784;9.336;2024-02-04T03:56:33;7.70;99.90
37786;DHT22;23625;48.784;9.336;2024-02-04T03:58:59;7.80;99.90
37786;DHT22;23625;48.784;9.336;2024-02-04T04:01:25;7.80;99.90
37786;DHT22;23625;48.784;9.336;2024-02-04T04:03:50;7.90;99.90
37786;DHT22;23625;48.784;9.336;2024-02-04T04:06:16;7.80;99.90
37786;DHT22;23625;48.784;9.336;2024-02-04T04:08:41;7.80;99.90
37786;DHT22;23625;48.784;9.336;2024-02-04T04:11:09;7.70;99.90
37786;DHT22;23625;48.784;9.336;2024-02-04T04:13:35;7.80;99.90
37786;DHT22;23625;48.784;9.336;2024-02-04T04:16:01;7.70;99.90
37786;DHT22;23625;48.784;9.336;2024-02-04T04:18:27;7.70;99.90
37786;DHT22;23625;48.784;9.336;2024-02-04T04:20:52;7.70;99.90
37786;DHT22;23625;48.784;9.336;2024-02-04T04:23:18;7.80;99.90
37786;DHT22;23625;48.784;9.336;2024-02-04T04:25:43;7.70;99.90
37786;DHT22;23625;48.784;9.336;2024-02-04T04:28:09;7.70;99.90
37786;DHT22;23625;48.784;9.336;2024-02-04T04:30:34;7.70;99.90
37786;DHT22;23625;48.784;9.336;2024-02-04T04:33:00;7.80;99.90
37786;DHT22;23625;48.784;9.336;2024-02-04T04:35:26;7.80;99.90
37786;DHT22;23625;48.784;9.336;2024-02-04T04:37:51;7.70;99.90
37786;DHT22;23625;48.784;9.336;2024-02-04T04:40:18;7.80;99.90
37786;DHT22;23625;48.784;9.336;2024-02-04T04:42:43;7.80;99.90
37786;DHT22;23625;48.784;9.336;2024-02-04T04:45:09;7.80;99.90
37786;DHT22;23625;48.784;9.336;2024-02-04T04:47:36;7.80;99.90
37786;DHT22;23625;48.784;9.336;2024-02-04T04:50:02;7.80;99.90
37786;DHT22;23625;48.784;9.336;2024-02-04T04:52:28;7.80;99.90
37786;DHT22;23625;48.784;9.336;2024-02-04T04:54:54;7.80;99.90
37786;DHT22;23625;48.784;9.336;2024-02-04T04:57:19;7.80;99.90
37786;DHT22;23625;48.784;9.336;2024-02-04T04:59:45;7.80;99.90
37786;DHT22;23625;48.784;9.336;2024-02-04T05:02:11;7.80;99.90
37786;DHT22;23625;48.784;9.336;2024-02-04T05:04:36;7.80;99.90
37786;DHT22;23625;48.784;9.336;2024-02-04T05:07:02;7.80;99.90
37786;DHT22;23625;48.784;9.336;2024-02-04T05:09:28;7.80;99.90
37786;DHT22;23625;48.784;9.336;2024-02-04T05:11:53;7.80;99.90
37786;DHT22;23625;48.784;9.336;2024-02-04T05:14:19;7.80;99.90
37786;DHT22;23625;48.784;9.336;2024-02-04T05:16:45;7.80;99.90
37786;DHT22;23625;48.784;9.336;2024-02-04T05:19:11;7.80;99.90
37786;DHT22;23625;48.784;9.336;2024-02-04T05:21:40;7.70;99.90
37786;DHT22;23625;48.784;9.336;2024-02-04T05:24:06;7.70;99.90
37786;DHT22;23625;48.784;9.336;2024-02-04T05:26:32;7.70;99.90
37786;DHT22;23625;48.784;9.336;2024-02-04T05:28:57;7.80;99.90
37786;DHT22;23625;48.784;9.336;2024-02-04T05:31:23;7.70;99.90
37786;DHT22;23625;48.784;9.336;2024-02-04T05:33:48;7.80;99.90
37786;DHT22;23625;48.784;9.336;2024-02-04T05:36:14;7.80;99.90
37786;DHT22;23625;48.784;9.336;2024-02-04T05:38:43;7.80;99.90
37786;DHT22;23625;48.784;9.336;2024-02-04T05:41:09;7.80;99.90
37786;DHT22;23625;48.784;9.336;2024-02-04T05:43:34;7.80;99.90
37786;DHT22;23625;48.784;9.336;2024-02-04T05:46:00;7.80;99.90
37786;DHT22;23625;48.784;9.336;2024-02-04T05:48:26;7.80;99.90
37786;DHT22;23625;48.784;9.336;2024-02-04T05:50:51;7.80;99.90
37786;DHT22;23625;48.784;9.336;2024-02-04T05:53:17;7.80;99.90
37786;DHT22;23625;48.784;9.336;2024-02-04T05:55:42;7.80;99.90
37786;DHT22;23625;48.784;9.336;2024-02-04T05:58:08;7.80;99.90
37786;DHT22;23625;48.784;9.336;2024-02-04T06:00:34;7.80;99.90
37786;DHT22;23625;48.784;9.336;2024-02-04T06:02:59;7.90;99.90
37786;DHT22;23625;48.784;9.336;2024-02-04T06:05:25;7.80;99.90
37786;DHT22;23625;48.784;9.336;2024-02-04T06:07:50;7.80;99.90
37786;DHT22;23625;48.784;9.336;2024-02-04T06:10:16;7.80;99.90
37786;DHT22;23625;48.784;9.336;2024-02-04T06:12:43;7.70;99.90
37786;DHT22;23625;48.784;9.336;2024-02-04T06:15:14;7.80;99.90
37786;DHT22;23625;48.784;9.336;2024-02-04T06:17:40;7.80;99.90
37786;DHT22;23625;48.784;9.336;2024-02-04T06:20:06;7.70;99.90
37786;DHT22;23625;48.784;9.336;2024-02-04T06:22:33;7.70;99.90
37786;DHT22;23625;48.784;9.336;2024-02-04T06:24:59;7.70;99.90
37786;DHT22;23625;48.784;9.336;2024-02-04T06:27:24;7.70;99.90
37786;DHT22;23625;48.784;9.336;2024-02-04T06:29:50;7.70;99.90
37786;DHT22;23625;48.784;9.336;2024-02-04T06:32:16;7.70;99.90
37786;DHT22;23625;48.784;9.336;2024-02-04T06:34:45;7.70;99.90
37786;DHT22;23625;48.784;9.336;2024-02-04T06:37:11;7.70;99.90
37786;DHT22;23625;48.784;9.336;2024-02-04T06:39:37;7.60;99.90
37786;DHT22;23625;48.784;9.336;2024-02-04T06:42:02;7.70;99.90
37786;DHT22;23625;48.784;9.336;2024-02-04T06:44:28;7.70;99.90
37786;DHT22;23625;48.784;9.336;2024-02-04T06:46:54;7.70;99.90
37786;DHT22;23625;48.784;9.336;2024-02-04T06:49:19;7.70;99.90
37786;DHT22;23625;48.784;9.336;2024-02-04T06:51:45;7.60;99.90
37786;DHT22;23625;48.784;9.336;2024-02-04T06:54:12;7.70;99.90
37786;DHT22;23625;48.784;9.336;2024-02-04T06:56:37;7.60;99.90
37786;DHT22;23625;48.784;9.336;2024-02-04T06:59:03;7.60;99.90
37786;DHT22;23625;48.784;9.336;2024-02-04T07:01:29;7.70;99.90
37786;DHT22;23625;48.784;9.336;2024-02-04T07:03:55;7.60;99.90
37786;DHT22;23625;48.784;9.336;2024-02-04T07:06:21;7.60;99.90
37786;DHT22;23625;48.784;9.336;2024-02-04T07:08:46;7.60;99.90
37786;DHT22;23625;48.784;9.336;2024-02-04T07:11:12;7.60;99.90
37786;DHT22;23625;48.784;9.336;2024-02-04T07:13:37;7.60;99.90
37786;DHT22;23625;48.784;9.336;2024-02-04T07:16:03;7.60;99.90
37786;DHT22;23625;48.784;9.336;2024-02-04T07:18:29;7.60;99.90
37786;DHT22;23625;48.784;9.336;2024-02-04T07:20:54;7.60;99.90
37786;DHT22;23625;48.784;9.336;2024-02-04T07:23:20;7.60;99.90
37786;DHT22;23625;48.784;9.336;2024-02-04T07:25:47;7.60;99.90
37786;DHT22;23625;48.784;9.336;2024-02-04T07:28:12;7.60;99.90
37786;DHT22;23625;48.784;9.336;2024-02-04T07:30:38;7.60;99.90
37786;DHT22;23625;48.784;9.336;2024-02-04T07:33:04;7.60;99.90
37786;DHT22;23625;48.784;9.336;2024-02-04T07:35:29;7.60;99.90
37786;DHT22;23625;48.784;9.336;2024-02-04T07:37:55;7.60;99.90
37786;DHT22;23625;48.784;9.336;2024-02-04T07:40:20;7.60;99.90
37786;DHT22;23625;48.784;9.336;2024-02-04T07:42:46;7.60;99.90
37786;DHT22;23625;48.784;9.336;2024-02-04T07:45:12;7.70;99.90
37786;DHT22;23625;48.784;9.336;2024-02-04T07:47:37;7.70;99.90
37786;DHT22;23625;48.784;9.336;2024-02-04T07:50:03;7.80;99.90
37786;DHT22;23625;48.784;9.336;2024-02-04T07:52:29;7.80;99.90
37786;DHT22;23625;48.784;9.336;2024-02-04T07:54:54;7.80;99.90
37786;DHT22;23625;48.784;9.336;2024-02-04T07:57:20;7.90;99.90
37786;DHT22;23625;48.784;9.336;2024-02-04T07:59:46;7.90;99.90
37786;DHT22;23625;48.784;9.336;2024-02-04T08:02:11;7.90;99.90
37786;DHT22;23625;48.784;9.336;2024-02-04T08:04:40;7.90;99.90
37786;DHT22;23625;48.784;9.336;2024-02-04T08:07:06;8.00;99.90
37786;DHT22;23625;48.784;9.336;2024-02-04T08:09:31;8.00;99.90
37786;DHT22;23625;48.784;9.336;2024-02-04T08:11:57;8.00;99.90
37786;DHT22;23625;48.784;9.336;2024-02-04T08:14:23;8.00;99.90
37786;DHT22;23625;48.784;9.336;2024-02-04T08:16:48;8.00;99.90
37786;DHT22;23625;48.784;9.336;2024-02-04T08:19:14;8.00;99.90
37786;DHT22;23625;48.784;9.336;2024-02-04T08:21:40;8.00;99.90
37786;DHT22;23625;48.784;9.336;2024-02-04T08:24:06;8.10;99.90
37786;DHT22;23625;48.784;9.336;2024-02-04T08:26:31;8.10;99.90
37786;DHT22;23625;48.784;9.336;2024-02-04T08:28:57;8.20;99.90
37786;DHT22;23625;48.784;9.336;2024-02-04T08:31:23;8.30;99.90
37786;DHT22;23625;48.784;9.336;2024-02-04T08:33:48;8.30;99.90
37786;DHT22;23625;48.784;9.336;2024-02-04T08:36:14;8.40;99.90
37786;DHT22;23625;48.784;9.336;2024-02-04T08:38:40;8.40;99.90
37786;DHT22;23625;48.784;9.336;2024-02-04T08:41:06;8.40;99.90
37786;DHT22;23625;48.784;9.336;2024-02-04T08:43:32;8.40;99.90
37786;DHT22;23625;48.784;9.336;2024-02-04T08:45:58;8.50;99.90
37786;DHT22;23625;48.784;9.336;2024-02-04T08:48:23;8.60;99.90
37786;DHT22;23625;48.784;9.336;2024-02-04T08:50:49;8.50;99.90
37786;DHT22;23625;48.784;9.336;2024-02-04T08:53:15;8.50;99.90
37786;DHT22;23625;48.784;9.336;2024-02-04T08:55:40;8.50;99.90
37786;DHT22;23625;48.784;9.336;2024-02-04T08:58:06;8.60;99.90
37786;DHT22;23625;48.784;9.336;2024-02-04T09:00:31;8.50;99.90
37786;DHT22;23625;48.784;9.336;2024-02-04T09:02:57;8.60;99.90
37786;DHT22;23625;48.784;9.336;2024-02-04T09:05:23;8.70;99.90
37786;DHT22;23625;48.784;9.336;2024-02-04T09:07:48;8.60;99.90
37786;DHT22;23625;48.784;9.336;2024-02-04T09:10:14;8.60;99.90
37786;DHT22;23625;48.784;9.336;2024-02-04T09:12:39;8.60;99.90
37786;DHT22;23625;48.784;9.336;2024-02-04T09:15:05;8.60;99.90
37786;DHT22;23625;48.784;9.336;2024-02-04T09:17:31;8.60;99.90
37786;DHT22;23625;48.784;9.336;2024-02-04T09:19:59;8.70;99.90
37786;DHT22;23625;48.784;9.336;2024-02-04T09:22:25;8.70;99.90
37786;DHT22;23625;48.784;9.336;2024-02-04T09:24:50;8.70;99.90
37786;DHT22;23625;48.784;9.336;2024-02-04T09:27:16;8.70;99.90
37786;DHT22;23625;48.784;9.336;2024-02-04T09:29:41;8.70;99.90
37786;DHT22;23625;48.784;9.336;2024-02-04T09:32:07;8.80;99.90
37786;DHT22;23625;48.784;9.336;2024-02-04T09:34:33;8.80;99.90
37786;DHT22;23625;48.784;9.336;2024-02-04T09:36:59;8.80;99.90
37786;DHT22;23625;48.784;9.336;2024-02-04T09:39:24;8.70;99.90
37786;DHT22;23625;48.784;9.336;2024-02-04T09:41:50;8.80;99.90
37786;DHT22;23625;48.784;9.336;2024-02-04T09:44:16;8.90;99.90
37786;DHT22;23625;48.784;9.336;2024-02-04T09:46:42;8.90;99.90
37786;DHT22;23625;48.784;9.336;2024-02-04T09:49:08;9.00;99.90
37786;DHT22;23625;48.784;9.336;2024-02-04T09:51:34;9.00;99.90
37786;DHT22;23625;48.784;9.336;2024-02-04T09:54:04;9.10;99.90
37786;DHT22;23625;48.784;9.336;2024-02-04T09:56:33;9.10;99.90
37786;DHT22;23625;48.784;9.336;2024-02-04T09:59:01;9.10;99.90
37786;DHT22;23625;48.784;9.336;2024-02-04T10:01:26;9.20;99.90
37786;DHT22;23625;48.784;9.336;2024-02-04T10:03:52;9.20;99.90
37786;DHT22;23625;48.784;9.336;2024-02-04T10:06:18;9.30;99.90
37786;DHT22;23625;48.784;9.336;2024-02-04T10:08:43;9.30;99.90
37786;DHT22;23625;48.784;9.336;2024-02-04T10:11:10;9.40;99.90
37786;DHT22;23625;48.784;9.336;2024-02-04T10:13:46;9.40;99.90
37786;DHT22;23625;48.784;9.336;2024-02-04T10:16:16;9.50;99.90
37786;DHT22;23625;48.784;9.336;2024-02-04T10:18:46;9.50;99.90
37786;DHT22;23625;48.784;9.336;2024-02-04T10:21:19;9.60;99.90
37786;DHT22;23625;48.784;9.336;2024-02-04T10:23:49;9.70;99.90
37786;DHT22;23625;48.784;9.336;2024-02-04T10:26:15;9.80;99.90
37786;DHT22;23625;48.784;9.336;2024-02-04T10:28:40;9.80;99.90
37786;DHT22;23625;48.784;9.336;2024-02-04T10:31:08;9.80;99.90
37786;DHT22;23625;48.784;9.336;2024-02-04T10:33:35;9.80;99.90
37786;DHT22;23625;48.784;9.336;2024-02-04T10:36:01;9.90;99.90
37786;DHT22;23625;48.784;9.336;2024-02-04T10:38:26;9.90;99.90
37786;DHT22;23625;48.784;9.336;2024-02-04T10:40:54;10.00;99.90
37786;DHT22;23625;48.784;9.336;2024-02-04T10:43:20;10.00;99.90
37786;DHT22;23625;48.784;9.336;2024-02-04T10:45:47;10.00;99.90
37786;DHT22;23625;48.784;9.336;2024-02-04T10:48:15;10.00;99.90
37786;DHT22;23625;48.784;9.336;2024-02-04T10:50:46;10.00;99.90
37786;DHT22;23625;48.784;9.336;2024-02-04T10:53:14;10.00;99.90
37786;DHT22;23625;48.784;9.336;2024-02-04T10:55:43;10.10;99.90
37786;DHT22;23625;48.784;9.336;2024-02-04T10:58:12;10.20;99.90
37786;DHT22;23625;48.784;9.336;2024-02-04T11:00:38;10.20;99.90
37786;DHT22;23625;48.784;9.336;2024-02-04T11:03:05;10.10;99.90
37786;DHT22;23625;48.784;9.336;2024-02-04T11:05:32;10.20;99.90
37786;DHT22;23625;48.784;9.336;2024-02-04T11:08:02;10.20;99.90
37786;DHT22;23625;48.784;9.336;2024-02-04T11:10:30;10.30;99.90
37786;DHT22;23625;48.784;9.336;2024-02-04T11:12:58;10.30;99.90
37786;DHT22;23625;48.784;9.336;2024-02-04T11:15:29;10.20;99.90
37786;DHT22;23625;48.784;9.336;2024-02-04T11:21:01;10.30;99.90
37786;DHT22;23625;48.784;9.336;2024-02-04T11:26:05;10.50;99.90
37786;DHT22;23625;48.784;9.336;2024-02-04T11:28:32;10.60;99.90
37786;DHT22;23625;48.784;9.336;2024-02-04T11:30:58;10.80;99.90
37786;DHT22;23625;48.784;9.336;2024-02-04T11:33:24;10.90;98.00
37786;DHT22;23625;48.784;9.336;2024-02-04T11:35:59;11.00;98.90
37786;DHT22;23625;48.784;9.336;2024-02-04T11:38:37;11.10;99.60
37786;DHT22;23625;48.784;9.336;2024-02-04T11:41:04;11.20;98.40
37786;DHT22;23625;48.784;9.336;2024-02-04T11:43:33;11.20;98.40
37786;DHT22;23625;48.784;9.336;2024-02-04T11:45:59;11.20;98.30
37786;DHT22;23625;48.784;9.336;2024-02-04T11:48:35;11.20;97.30
37786;DHT22;23625;48.784;9.336;2024-02-04T11:51:04;11.20;97.10
37786;DHT22;23625;48.784;9.336;2024-02-04T11:53:30;11.20;97.90
37786;DHT22;23625;48.784;9.336;2024-02-04T11:55:58;11.20;99.00
37786;DHT22;23625;48.784;9.336;2024-02-04T11:58:26;11.30;97.60
37786;DHT22;23625;48.784;9.336;2024-02-04T12:00:52;11.30;97.90
37786;DHT22;23625;48.784;9.336;2024-02-04T12:03:31;11.40;97.60
37786;DHT22;23625;48.784;9.336;2024-02-04T12:05:57;11.40;98.50
37786;DHT22;23625;48.784;9.336;2024-02-04T12:08:24;11.60;97.20
37786;DHT22;23625;48.784;9.336;2024-02-04T12:10:50;11.60;96.10
37786;DHT22;23625;48.784;9.336;2024-02-04T12:13:18;11.70;96.30
37786;DHT22;23625;48.784;9.336;2024-02-04T12:15:45;11.90;95.20
37786;DHT22;23625;48.784;9.336;2024-02-04T12:18:11;12.00;93.80
37786;DHT22;23625;48.784;9.336;2024-02-04T12:20:38;12.10;93.30
37786;DHT22;23625;48.784;9.336;2024-02-04T12:23:04;12.10;92.90
37786;DHT22;23625;48.784;9.336;2024-02-04T12:25:30;12.10;93.10
37786;DHT22;23625;48.784;9.336;2024-02-04T12:28:00;12.20;93.80
37786;DHT22;23625;48.784;9.336;2024-02-04T12:30:29;12.20;92.10
37786;DHT22;23625;48.784;9.336;2024-02-04T12:32:59;12.30;91.50
37786;DHT22;23625;48.784;9.336;2024-02-04T12:35:27;12.30;92.50
37786;DHT22;23625;48.784;9.336;2024-02-04T12:37:54;12.20;92.70
37786;DHT22;23625;48.784;9.336;2024-02-04T12:40:30;12.20;93.20
37786;DHT22;23625;48.784;9.336;2024-02-04T12:42:59;12.20;93.90
37786;DHT22;23625;48.784;9.336;2024-02-04T12:45:26;12.20;93.70
37786;DHT22;23625;48.784;9.336;2024-02-04T12:47:52;12.40;93.20
37786;DHT22;23625;48.784;9.336;2024-02-04T12:50:19;12.50;91.70
37786;DHT22;23625;48.784;9.336;2024-02-04T12:53:03;12.60;91.60
37786;DHT22;23625;48.784;9.336;2024-02-04T12:55:30;12.60;91.80
37786;DHT22;23625;48.784;9.336;2024-02-04T13:00:35;12.70;90.80
37786;DHT22;23625;48.784;9.336;2024-02-04T13:03:05;12.70;90.50
37786;DHT22;23625;48.784;9.336;2024-02-04T13:05:31;12.90;88.10
37786;DHT22;23625;48.784;9.336;2024-02-04T13:07:58;12.80;87.00
37786;DHT22;23625;48.784;9.336;2024-02-04T13:10:26;12.80;87.60
37786;DHT22;23625;48.784;9.336;2024-02-04T13:13:06;12.70;87.90
37786;DHT22;23625;48.784;9.336;2024-02-04T13:15:37;12.50;88.90
37786;DHT22;23625;48.784;9.336;2024-02-04T13:18:04;12.50;90.20
37786;DHT22;23625;48.784;9.336;2024-02-04T13:20:29;12.50;89.20
37786;DHT22;23625;48.784;9.336;2024-02-04T13:22:55;12.40;90.50
37786;DHT22;23625;48.784;9.336;2024-02-04T13:25:21;12.40;90.70
37786;DHT22;23625;48.784;9.336;2024-02-04T13:27:48;12.50;90.30
37786;DHT22;23625;48.784;9.336;2024-02-04T13:30:14;12.40;90.30
37786;DHT22;23625;48.784;9.336;2024-02-04T13:32:40;12.40;91.20
37786;DHT22;23625;48.784;9.336;2024-02-04T13:35:06;12.30;90.90
37786;DHT22;23625;48.784;9.336;2024-02-04T13:37:43;12.30;91.80
37786;DHT22;23625;48.784;9.336;2024-02-04T13:40:17;12.30;91.70
37786;DHT22;23625;48.784;9.336;2024-02-04T13:42:43;12.20;92.30
37786;DHT22;23625;48.784;9.336;2024-02-04T13:45:09;12.20;92.10
37786;DHT22;23625;48.784;9.336;2024-02-04T13:47:35;12.20;91.60
37786;DHT22;23625;48.784;9.336;2024-02-04T13:50:01;12.30;90.90
37786;DHT22;23625;48.784;9.336;2024-02-04T13:52:27;12.30;91.80
37786;DHT22;23625;48.784;9.336;2024-02-04T13:54:53;12.30;91.10
37786;DHT22;23625;48.784;9.336;2024-02-04T13:57:19;12.20;91.40
37786;DHT22;23625;48.784;9.336;2024-02-04T13:59:44;12.20;91.90
37786;DHT22;23625;48.784;9.336;2024-02-04T14:02:10;12.10;92.40
37786;DHT22;23625;48.784;9.336;2024-02-04T14:04:36;12.10;92.10
37786;DHT22;23625;48.784;9.336;2024-02-04T14:07:02;12.20;91.70
37786;DHT22;23625;48.784;9.336;2024-02-04T14:09:28;12.20;91.10
37786;DHT22;23625;48.784;9.336;2024-02-04T14:11:54;12.20;91.70
37786;DHT22;23625;48.784;9.336;2024-02-04T14:14:23;12.20;91.10
37786;DHT22;23625;48.784;9.336;2024-02-04T14:16:48;12.10;92.00
37786;DHT22;23625;48.784;9.336;2024-02-04T14:19:14;12.00;92.20
37786;DHT22;23625;48.784;9.336;2024-02-04T14:21:42;11.90;93.10
37786;DHT22;23625;48.784;9.336;2024-02-04T14:24:09;11.90;93.80
37786;DHT22;23625;48.784;9.336;2024-02-04T14:26:34;12.00;93.40
37786;DHT22;23625;48.784;9.336;2024-02-04T14:29:00;11.90;93.80
37786;DHT22;23625;48.784;9.336;2024-02-04T14:31:25;11.80;94.80
37786;DHT22;23625;48.784;9.336;2024-02-04T14:33:51;11.90;94.10
37786;DHT22;23625;48.784;9.336;2024-02-04T14:36:17;11.90;94.00
37786;DHT22;23625;48.784;9.336;2024-02-04T14:38:43;11.80;94.80
37786;DHT22;23625;48.784;9.336;2024-02-04T14:41:08;11.80;94.10
37786;DHT22;23625;48.784;9.336;2024-02-04T14:43:35;11.80;95.30
37786;DHT22;23625;48.784;9.336;2024-02-04T14:46:01;11.70;95.60
37786;DHT22;23625;48.784;9.336;2024-02-04T14:48:26;11.60;96.30
37786;DHT22;23625;48.784;9.336;2024-02-04T14:50:52;11.60;96.50
37786;DHT22;23625;48.784;9.336;2024-02-04T14:53:19;11.60;96.50
37786;DHT22;23625;48.784;9.336;2024-02-04T14:55:45;11.60;97.10
37786;DHT22;23625;48.784;9.336;2024-02-04T14:58:10;11.60;96.80
37786;DHT22;23625;48.784;9.336;2024-02-04T15:00:36;11.60;96.20
37786;DHT22;23625;48.784;9.336;2024-02-04T15:03:02;11.60;95.00
37786;DHT22;23625;48.784;9.336;2024-02-04T15:05:27;11.60;96.80
37786;DHT22;23625;48.784;9.336;2024-02-04T15:07:53;11.70;96.10
37786;DHT22;23625;48.784;9.336;2024-02-04T15:10:19;11.70;95.10
37786;DHT22;23625;48.784;9.336;2024-02-04T15:12:45;11.70;95.60
37786;DHT22;23625;48.784;9.336;2024-02-04T15:15:11;11.50;96.10
37786;DHT22;23625;48.784;9.336;2024-02-04T15:17:38;11.40;97.70
37786;DHT22;23625;48.784;9.336;2024-02-04T15:20:04;11.20;98.90
37786;DHT22;23625;48.784;9.336;2024-02-04T15:22:30;11.20;99.20
37786;DHT22;23625;48.784;9.336;2024-02-04T15:24:56;11.20;99.40
37786;DHT22;23625;48.784;9.336;2024-02-04T15:27:24;11.30;97.60
37786;DHT22;23625;48.784;9.336;2024-02-04T15:29:51;11.20;98.50
37786;DHT22;23625;48.784;9.336;2024-02-04T15:32:17;11.10;99.60
37786;DHT22;23625;48.784;9.336;2024-02-04T15:34:43;11.00;99.90
37786;DHT22;23625;48.784;9.336;2024-02-04T15:37:09;11.10;99.20
37786;DHT22;23625;48.784;9.336;2024-02-04T15:39:35;11.00;99.90
37786;DHT22;23625;48.784;9.336;2024-02-04T15:42:03;11.00;99.90
37786;DHT22;23625;48.784;9.336;2024-02-04T15:44:30;10.90;99.90
37786;DHT22;23625;48.784;9.336;2024-02-04T15:46:56;11.00;99.90
37786;DHT22;23625;48.784;9.336;2024-02-04T15:49:24;10.90;99.90
37786;DHT22;23625;48.784;9.336;2024-02-04T15:51:52;10.90;99.90